createdAt,value
2022-09-01T00:01:43.987Z,23.68
2022-09-01T00:03:49.212Z,23.56
2022-09-01T00:05:57.098Z,23.95
2022-09-01T00:07:58.814Z,23.05
2022-09-01T00:10:00.751Z,23.23
2022-09-01T00:12:04.967Z,22.69
2022-09-01T00:14:30.224Z,23.70
2022-09-01T00:16:31.080Z,23.41
2022-09-01T00:18:32.868Z,22.76
2022-09-01T00:20:34.621Z,23.62
2022-09-01T00:22:36.478Z,23.27
2022-09-01T00:24:38.308Z,23.41
2022-09-01T00:26:40.211Z,23.64
2022-09-01T00:28:41.939Z,23.49
2022-09-01T00:30:43.601Z,23.52
2022-09-01T00:32:46.893Z,24.20
2022-09-01T00:34:48.595Z,23.80
2022-09-01T00:36:50.584Z,23.27
2022-09-01T00:38:52.402Z,23.78
2022-09-01T00:40:54.798Z,23.78
2022-09-01T00:42:56.435Z,23.57
2022-09-01T00:44:58.028Z,23.73
2022-09-01T00:47:00.243Z,23.10
2022-09-01T00:49:08.080Z,23.28
2022-09-01T00:51:11.098Z,22.94
2022-09-01T00:53:13.523Z,23.66
2022-09-01T00:55:24.809Z,23.22
2022-09-01T00:57:27.543Z,23.44
2022-09-01T00:59:29.687Z,23.44
2022-09-01T01:01:31.288Z,23.38
2022-09-01T01:03:33.055Z,22.83
2022-09-01T01:05:40.643Z,23.53
2022-09-01T01:07:47.591Z,22.73
2022-09-01T01:09:50.979Z,22.92
2022-09-01T01:11:53.435Z,22.86
2022-09-01T01:14:12.182Z,22.87
2022-09-01T01:16:15.991Z,22.84
2022-09-01T01:18:23.202Z,23.12
2022-09-01T01:20:46.859Z,22.32
2022-09-01T01:23:05.788Z,22.09
2022-09-01T01:25:07.979Z,22.79
2022-09-01T01:27:09.549Z,22.41
2022-09-01T01:29:11.803Z,22.51
2022-09-01T01:31:19.534Z,22.46
2022-09-01T01:33:25.412Z,22.74
2022-09-01T01:35:27.758Z,22.61
2022-09-01T01:37:29.924Z,22.92
2022-09-01T01:39:32.633Z,22.71
2022-09-01T01:41:36.192Z,22.87
2022-09-01T01:43:38.881Z,23.11
2022-09-01T01:45:40.472Z,22.69
2022-09-01T01:47:42.391Z,22.55
2022-09-01T01:49:44.142Z,22.53
2022-09-01T01:51:47.390Z,22.64
2022-09-01T01:53:52.746Z,22.51
2022-09-01T01:55:56.166Z,22.47
2022-09-01T01:57:59.285Z,22.13
2022-09-01T02:00:01.687Z,22.49
2022-09-01T02:02:08.689Z,22.62
2022-09-01T02:04:11.514Z,22.66
2022-09-01T02:06:13.295Z,22.89
2022-09-01T02:08:15.844Z,22.62
2022-09-01T02:10:17.548Z,22.50
2022-09-01T02:12:19.500Z,21.27
2022-09-01T02:14:21.826Z,22.44
2022-09-01T02:16:25.667Z,22.57
2022-09-01T02:18:34.250Z,22.93
2022-09-01T02:20:36.801Z,22.64
2022-09-01T02:22:39.508Z,22.05
2022-09-01T02:24:51.484Z,22.08
2022-09-01T02:26:53.126Z,22.32
2022-09-01T02:28:56.113Z,22.65
2022-09-01T02:30:59.808Z,21.89
2022-09-01T02:33:01.913Z,21.60
2022-09-01T02:35:07.350Z,22.00
2022-09-01T02:37:08.966Z,21.51
2022-09-01T02:39:11.455Z,21.94
2022-09-01T02:41:15.454Z,21.72
2022-09-01T02:43:20.695Z,21.13
2022-09-01T02:45:24.143Z,22.28
2022-09-01T02:47:28.105Z,22.14
2022-09-01T02:49:31.468Z,22.25
2022-09-01T02:51:33.424Z,22.54
2022-09-01T02:53:35.988Z,22.48
2022-09-01T02:55:41.024Z,21.73
2022-09-01T02:57:42.644Z,21.43
2022-09-01T02:59:44.237Z,21.82
2022-09-01T03:01:46.941Z,21.91
2022-09-01T03:03:50.262Z,22.38
2022-09-01T03:05:56.448Z,21.84
2022-09-01T03:08:02.298Z,21.74
2022-09-01T03:10:09.743Z,21.72
2022-09-01T03:12:11.421Z,21.82
2022-09-01T03:14:13.384Z,22.41
2022-09-01T03:16:16.300Z,22.07
2022-09-01T03:18:21.117Z,21.61
2022-09-01T03:20:22.828Z,20.59
2022-09-01T03:22:24.473Z,21.33
2022-09-01T03:24:26.297Z,21.70
2022-09-01T03:26:27.924Z,21.11
2022-09-01T03:28:29.959Z,21.29
2022-09-01T03:30:35.397Z,21.69
2022-09-01T03:32:37.159Z,22.34
2022-09-01T03:34:39.570Z,21.49
2022-09-01T03:36:50.344Z,21.32
2022-09-01T03:38:53.045Z,21.30
2022-09-01T03:41:02.193Z,21.04
2022-09-01T03:43:06.384Z,20.96
2022-09-01T03:45:09.195Z,21.21
2022-09-01T03:47:11.319Z,21.36
2022-09-01T03:49:17.631Z,21.65
2022-09-01T03:51:22.793Z,22.31
2022-09-01T03:53:27.452Z,21.53
2022-09-01T03:55:32.450Z,21.10
2022-09-01T03:57:34.540Z,22.04
2022-09-01T03:59:39.067Z,21.70
2022-09-01T04:01:43.838Z,21.91
2022-09-01T04:03:47.632Z,22.21
2022-09-01T04:05:51.340Z,21.95
2022-09-01T04:07:52.943Z,22.01
2022-09-01T04:09:54.679Z,21.92
2022-09-01T04:11:56.280Z,21.61
2022-09-01T04:13:58.542Z,21.63
2022-09-01T04:16:00.208Z,20.79
2022-09-01T04:18:12.042Z,20.94
2022-09-01T04:20:15.407Z,21.32
2022-09-01T04:22:29.254Z,20.72
2022-09-01T04:24:32.925Z,21.38
2022-09-01T04:26:34.496Z,21.18
2022-09-01T04:28:48.324Z,21.17
2022-09-01T04:30:53.213Z,21.28
2022-09-01T04:32:56.172Z,20.84
2022-09-01T04:34:58.015Z,21.33
2022-09-01T04:36:59.628Z,21.23
2022-09-01T04:39:08.794Z,20.90
2022-09-01T04:41:17.692Z,21.26
2022-09-01T04:43:19.700Z,21.35
2022-09-01T04:45:27.355Z,20.94
2022-09-01T04:47:36.163Z,21.76
2022-09-01T04:49:38.179Z,21.33
2022-09-01T04:51:42.395Z,21.43
2022-09-01T04:53:48.850Z,21.62
2022-09-01T04:55:52.543Z,21.07
2022-09-01T04:57:54.859Z,21.52
2022-09-01T05:02:27.344Z,21.23
2022-09-01T05:04:35.148Z,21.62
2022-09-01T05:06:39.538Z,21.57
2022-09-01T05:08:42.054Z,22.10
2022-09-01T05:10:53.239Z,21.64
2022-09-01T05:12:54.786Z,21.64
2022-09-01T05:14:56.730Z,22.03
2022-09-01T05:16:59.110Z,22.17
2022-09-01T05:19:01.563Z,22.39
2022-09-01T05:21:09.973Z,22.69
2022-09-01T05:23:13.187Z,22.74
2022-09-01T05:25:14.897Z,22.92
2022-09-01T05:27:18.164Z,23.00
2022-09-01T05:29:21.118Z,22.97
2022-09-01T05:31:24.595Z,21.98
2022-09-01T05:33:26.308Z,22.48
2022-09-01T05:35:32.723Z,22.87
2022-09-01T05:37:37.597Z,22.49
2022-09-01T05:39:39.569Z,22.64
2022-09-01T05:41:41.582Z,22.88
2022-09-01T05:43:48.297Z,22.51
2022-09-01T05:46:06.085Z,22.46
2022-09-01T05:48:09.478Z,22.62
2022-09-01T05:50:14.599Z,23.12
2022-09-01T05:52:16.527Z,23.45
2022-09-01T05:54:23.183Z,22.87
2022-09-01T05:56:28.977Z,22.94
2022-09-01T05:59:22.623Z,22.97
2022-09-01T06:00:55.951Z,23.24
2022-09-01T06:02:58.166Z,23.33
2022-09-01T06:05:00.381Z,23.06
2022-09-01T06:07:06.017Z,22.23
2022-09-01T06:09:10.608Z,22.08
2022-09-01T06:11:17.763Z,22.00
2022-09-01T06:13:21.967Z,22.38
2022-09-01T06:15:30.876Z,22.53
2022-09-01T06:17:35.897Z,23.67
2022-09-01T06:19:40.084Z,23.00
2022-09-01T06:21:42.358Z,22.94
2022-09-01T06:23:45.031Z,23.54
2022-09-01T06:25:47.609Z,23.42
2022-09-01T06:27:49.462Z,23.08
2022-09-01T06:29:53.711Z,22.14
2022-09-01T06:31:56.843Z,22.62
2022-09-01T06:33:59.996Z,23.26
2022-09-01T06:36:04.072Z,23.47
2022-09-01T06:38:07.021Z,23.71
2022-09-01T06:40:17.210Z,23.83
2022-09-01T06:42:19.916Z,23.52
2022-09-01T06:44:25.102Z,23.41
2022-09-01T06:46:27.964Z,23.37
2022-09-01T06:48:30.924Z,23.77
2022-09-01T06:55:23.146Z,24.10
2022-09-01T06:59:50.500Z,23.67
2022-09-01T07:02:01.448Z,24.18
2022-09-01T07:04:04.144Z,23.45
2022-09-01T07:06:07.393Z,23.91
2022-09-01T07:08:17.907Z,23.65
2022-09-01T07:10:22.763Z,23.63
2022-09-01T07:12:25.745Z,24.62
2022-09-01T07:17:29.436Z,23.39
2022-09-01T07:19:48.888Z,23.51
2022-09-01T07:24:13.035Z,23.55
2022-09-01T07:26:24.679Z,24.36
2022-09-01T07:28:39.916Z,24.24
2022-09-01T07:30:48.641Z,24.61
2022-09-01T07:32:50.653Z,24.17
2022-09-01T07:34:52.434Z,24.31
2022-09-01T07:37:17.352Z,24.54
2022-09-01T07:44:05.439Z,25.06
2022-09-01T07:49:01.887Z,24.39
2022-09-01T07:53:22.635Z,24.80
2022-09-01T07:55:24.294Z,24.37
2022-09-01T07:57:26.551Z,24.38
2022-09-01T07:59:29.537Z,24.45
2022-09-01T08:01:31.239Z,24.48
2022-09-01T08:03:33.095Z,24.01
2022-09-01T08:05:34.804Z,24.44
2022-09-01T08:07:51.623Z,24.95
2022-09-01T08:09:56.016Z,24.43
2022-09-01T08:12:02.297Z,24.53
2022-09-01T08:14:04.687Z,25.03
2022-09-01T08:16:08.702Z,23.92
2022-09-01T08:18:13.856Z,25.58
2022-09-01T08:20:15.809Z,26.09
2022-09-01T08:22:17.403Z,25.20
2022-09-01T08:24:19.625Z,25.37
2022-09-01T08:26:25.159Z,24.99
2022-09-01T08:28:27.062Z,25.75
2022-09-01T08:30:30.063Z,24.91
2022-09-01T08:32:32.327Z,25.70
2022-09-01T08:34:35.191Z,25.55
2022-09-01T08:36:36.860Z,24.73
2022-09-01T08:38:39.704Z,24.58
2022-09-01T08:40:49.570Z,24.49
2022-09-01T08:43:06.690Z,25.26
2022-09-01T08:45:15.763Z,24.69
2022-09-01T08:47:28.747Z,25.75
2022-09-01T08:49:43.043Z,25.96
2022-09-01T08:51:57.333Z,24.87
2022-09-01T08:54:14.807Z,25.45
2022-09-01T08:56:19.974Z,24.96
2022-09-01T08:58:22.277Z,25.32
2022-09-01T09:00:27.600Z,25.30
2022-09-01T09:02:40.539Z,25.32
2022-09-01T09:05:02.250Z,25.43
2022-09-01T09:07:06.906Z,26.15
2022-09-01T09:09:09.335Z,26.02
2022-09-01T09:11:32.295Z,26.00
2022-09-01T09:13:42.639Z,25.19
2022-09-01T09:16:07.468Z,25.66
2022-09-01T09:18:34.506Z,25.89
2022-09-01T09:20:38.371Z,25.24
2022-09-01T09:22:44.925Z,25.62
2022-09-01T09:25:10.832Z,25.22
2022-09-01T09:27:24.300Z,25.63
2022-09-01T09:29:27.301Z,25.94
2022-09-01T09:31:38.661Z,26.07
2022-09-01T09:33:55.735Z,26.24
2022-09-01T09:36:17.117Z,26.11
2022-09-01T09:38:33.059Z,25.58
2022-09-01T09:40:53.233Z,25.58
2022-09-01T09:42:56.639Z,26.72
2022-09-01T09:44:59.069Z,26.79
2022-09-01T09:47:01.350Z,27.23
2022-09-01T09:49:34.896Z,27.02
2022-09-01T09:51:41.924Z,25.97
2022-09-01T09:53:43.504Z,26.70
2022-09-01T09:56:30.303Z,27.00
2022-09-01T09:58:41.568Z,26.46
2022-09-01T10:01:05.111Z,27.78
2022-09-01T10:03:12.258Z,27.06
2022-09-01T10:05:35.346Z,27.71
2022-09-01T10:07:38.070Z,27.07
2022-09-01T10:09:39.659Z,26.95
2022-09-01T10:11:44.998Z,26.69
2022-09-01T10:13:46.616Z,27.41
2022-09-01T10:15:52.165Z,27.68
2022-09-01T10:18:20.530Z,27.78
2022-09-01T10:20:26.760Z,28.06
2022-09-01T10:22:28.340Z,27.79
2022-09-01T10:24:38.896Z,27.77
2022-09-01T10:26:43.302Z,27.30
2022-09-01T10:28:57.664Z,27.67
2022-09-01T10:31:00.281Z,27.49
2022-09-01T10:33:07.982Z,27.08
2022-09-01T10:35:26.181Z,26.58
2022-09-01T10:37:28.212Z,27.42
2022-09-01T10:39:31.099Z,27.25
2022-09-01T10:41:53.258Z,27.49
2022-09-01T10:44:19.307Z,28.26
2022-09-01T10:46:39.049Z,27.29
2022-09-01T10:48:55.766Z,26.92
2022-09-01T10:51:18.256Z,28.04
2022-09-01T10:53:35.608Z,27.62
2022-09-01T10:56:03.509Z,27.72
2022-09-01T11:03:42.233Z,26.08
2022-09-01T11:06:11.338Z,26.20
2022-09-01T11:08:51.029Z,26.99
2022-09-01T11:11:07.999Z,26.34
2022-09-01T11:13:51.415Z,26.26
2022-09-01T11:15:53.682Z,26.80
2022-09-01T11:17:59.662Z,26.25
2022-09-01T11:20:12.798Z,26.86
2022-09-01T11:22:14.350Z,26.45
2022-09-01T11:24:38.311Z,27.17
2022-09-01T11:26:49.718Z,26.89
2022-09-01T11:28:51.333Z,26.25
2022-09-01T11:31:08.708Z,26.77
2022-09-01T11:33:26.229Z,27.50
2022-09-01T11:35:29.033Z,27.22
2022-09-01T11:37:31.077Z,26.84
2022-09-01T11:39:34.841Z,26.33
2022-09-01T11:42:04.391Z,26.34
2022-09-01T11:44:32.447Z,27.42
2022-09-01T11:46:36.794Z,27.31
2022-09-01T11:48:47.116Z,28.33
2022-09-01T11:50:59.804Z,27.21
2022-09-01T11:53:06.349Z,26.49
2022-09-01T11:55:10.231Z,27.03
2022-09-01T11:57:38.825Z,27.43
2022-09-01T11:59:40.491Z,27.49
2022-09-01T12:01:42.055Z,26.48
2022-09-01T12:03:44.528Z,27.26
2022-09-01T12:05:50.220Z,27.62
2022-09-01T12:07:52.745Z,26.79
2022-09-01T12:09:54.396Z,26.71
2022-09-01T12:11:56.373Z,27.84
2022-09-01T12:14:04.721Z,27.44
2022-09-01T12:16:19.036Z,27.45
2022-09-01T12:18:27.829Z,28.22
2022-09-01T12:20:35.245Z,27.29
2022-09-01T12:22:36.981Z,27.39
2022-09-01T12:24:38.629Z,27.65
2022-09-01T12:26:41.501Z,27.69
2022-09-01T12:28:44.010Z,26.48
2022-09-01T12:30:47.747Z,27.32
2022-09-01T12:32:49.984Z,27.45
2022-09-01T12:35:10.811Z,27.67
2022-09-01T12:37:16.030Z,26.94
2022-09-01T12:39:17.530Z,27.33
2022-09-01T12:41:36.544Z,27.65
2022-09-01T12:43:40.763Z,27.75
2022-09-01T12:45:47.584Z,28.16
2022-09-01T12:47:50.973Z,27.86
2022-09-01T12:49:55.444Z,28.24
2022-09-01T12:52:28.228Z,28.57
2022-09-01T12:54:29.954Z,28.50
2022-09-01T12:56:36.169Z,28.24
2022-09-01T12:58:37.793Z,28.03
2022-09-01T13:01:02.896Z,27.86
2022-09-01T13:03:17.907Z,28.67
2022-09-01T13:05:30.591Z,28.18
2022-09-01T13:07:33.608Z,27.93
2022-09-01T13:09:35.346Z,27.53
2022-09-01T13:13:58.559Z,28.06
2022-09-01T13:16:02.669Z,27.66
2022-09-01T13:18:04.638Z,27.71
2022-09-01T13:20:07.903Z,27.83
2022-09-01T13:22:10.102Z,28.27
2022-09-01T13:24:11.791Z,28.50
2022-09-01T13:26:13.459Z,27.76
2022-09-01T13:28:17.325Z,28.28
2022-09-01T13:30:22.335Z,28.53
2022-09-01T13:32:25.245Z,28.39
2022-09-01T13:34:28.716Z,28.63
2022-09-01T13:36:51.149Z,28.78
2022-09-01T13:38:52.205Z,28.39
2022-09-01T13:40:58.006Z,27.91
2022-09-01T13:42:59.692Z,28.45
2022-09-01T13:45:01.714Z,28.13
2022-09-01T13:51:53.969Z,28.60
2022-09-01T13:53:55.599Z,28.85
2022-09-01T13:58:04.309Z,28.28
2022-09-01T14:00:12.477Z,29.00
2022-09-01T14:02:14.164Z,28.93
2022-09-01T14:04:15.885Z,28.54
2022-09-01T14:06:17.535Z,28.57
2022-09-01T14:08:21.517Z,28.81
2022-09-01T14:10:24.962Z,28.70
2022-09-01T14:12:26.701Z,29.53
2022-09-01T14:15:11.244Z,29.44
2022-09-01T14:16:50.300Z,28.61
2022-09-01T14:18:51.959Z,29.25
2022-09-01T14:20:54.619Z,29.32
2022-09-01T14:22:56.198Z,29.51
2022-09-01T14:24:59.418Z,28.66
2022-09-01T14:27:00.986Z,28.87
2022-09-01T14:29:02.904Z,29.39
2022-09-01T14:31:11.616Z,28.70
2022-09-01T14:33:13.342Z,28.98
2022-09-01T14:35:16.187Z,28.95
2022-09-01T14:37:17.808Z,28.81
2022-09-01T14:39:19.492Z,28.72
2022-09-01T14:41:23.943Z,29.02
2022-09-01T14:43:28.681Z,29.19
2022-09-01T14:45:30.272Z,29.56
2022-09-01T14:47:32.083Z,28.32
2022-09-01T14:49:37.050Z,29.51
2022-09-01T14:54:00.543Z,28.94
2022-09-01T14:56:03.032Z,28.50
2022-09-01T14:58:05.110Z,28.96
2022-09-01T15:00:12.459Z,28.48
2022-09-01T15:02:14.386Z,28.99
2022-09-01T15:04:16.034Z,28.92
2022-09-01T15:06:19.920Z,29.04
2022-09-01T15:08:23.960Z,29.24
2022-09-01T15:10:27.276Z,29.40
2022-09-01T15:12:31.096Z,29.35
2022-09-01T15:14:33.063Z,28.46
2022-09-01T15:16:39.578Z,29.42
2022-09-01T15:18:41.284Z,29.24
2022-09-01T15:20:46.330Z,29.45
2022-09-01T15:22:49.734Z,29.62
2022-09-01T15:24:51.298Z,29.46
2022-09-01T15:26:53.091Z,28.92
2022-09-01T15:28:56.962Z,29.45
2022-09-01T15:31:00.269Z,29.04
2022-09-01T15:33:02.138Z,28.88
2022-09-01T15:35:03.939Z,28.72
2022-09-01T15:37:07.418Z,29.02
2022-09-01T15:39:10.639Z,29.64
2022-09-01T15:41:26.855Z,29.42
2022-09-01T15:43:29.035Z,29.18
2022-09-01T15:45:30.713Z,28.26
2022-09-01T15:47:34.566Z,28.79
2022-09-01T15:49:36.179Z,29.34
2022-09-01T15:51:43.527Z,29.43
2022-09-01T15:53:45.626Z,28.41
2022-09-01T15:55:49.717Z,29.15
2022-09-01T15:57:52.542Z,29.56
2022-09-01T15:59:54.366Z,28.91
2022-09-01T16:01:56.216Z,28.47
2022-09-01T16:03:57.946Z,28.87
2022-09-01T16:06:01.169Z,29.39
2022-09-01T16:08:04.839Z,29.22
2022-09-01T16:10:11.347Z,29.79
2022-09-01T16:12:12.940Z,28.53
2022-09-01T16:14:16.080Z,29.17
2022-09-01T16:16:40.498Z,29.60
2022-09-01T16:18:59.006Z,28.91
2022-09-01T16:21:36.670Z,29.08
2022-09-01T16:23:43.087Z,29.32
2022-09-01T16:25:45.667Z,28.39
2022-09-01T16:27:47.278Z,28.97
2022-09-01T16:29:55.160Z,29.03
2022-09-01T16:31:56.908Z,28.52
2022-09-01T16:34:03.752Z,28.90
2022-09-01T16:36:08.512Z,28.91
2022-09-01T16:38:31.244Z,29.99
2022-09-01T16:40:56.357Z,29.20
2022-09-01T16:43:37.902Z,29.28
2022-09-01T16:45:43.310Z,29.28
2022-09-01T16:48:13.184Z,29.34
2022-09-01T16:50:26.959Z,29.17
2022-09-01T16:52:42.477Z,28.88
2022-09-01T16:55:05.214Z,29.40
2022-09-01T16:57:19.549Z,29.29
2022-09-01T16:59:38.068Z,29.47
2022-09-01T17:01:39.631Z,29.44
2022-09-01T17:03:54.239Z,29.67
2022-09-01T17:06:02.734Z,29.66
2022-09-01T17:08:26.551Z,30.07
2022-09-01T17:10:33.693Z,29.74
2022-09-01T17:12:38.415Z,29.40
2022-09-01T17:14:49.458Z,29.01
2022-09-01T17:16:55.343Z,29.24
2022-09-01T17:19:00.291Z,29.55
2022-09-01T17:21:33.312Z,29.23
2022-09-01T17:23:41.026Z,29.11
2022-09-01T17:25:54.310Z,29.19
2022-09-01T17:28:02.213Z,29.63
2022-09-01T17:30:07.207Z,28.95
2022-09-01T17:32:33.073Z,28.72
2022-09-01T17:35:01.580Z,28.86
2022-09-01T17:37:15.719Z,29.12
2022-09-01T17:39:26.274Z,29.57
2022-09-01T17:41:44.575Z,29.37
2022-09-01T17:44:30.751Z,29.41
2022-09-01T17:46:48.079Z,29.27
2022-09-01T17:48:54.958Z,29.39
2022-09-01T17:51:12.566Z,29.29
2022-09-01T17:53:59.540Z,29.05
2022-09-01T17:56:25.511Z,29.13
2022-09-01T17:58:27.119Z,29.02
2022-09-01T18:00:40.273Z,28.63
2022-09-01T18:03:26.112Z,29.07
2022-09-01T18:05:29.533Z,28.94
2022-09-01T18:07:56.647Z,29.28
2022-09-01T18:10:02.589Z,29.19
2022-09-01T18:12:17.090Z,29.18
2022-09-01T18:14:24.398Z,28.55
2022-09-01T18:16:30.991Z,28.28
2022-09-01T18:18:37.440Z,28.58
2022-09-01T18:20:41.887Z,28.86
2022-09-01T18:23:00.672Z,28.08
2022-09-01T18:25:07.654Z,28.17
2022-09-01T18:27:09.262Z,27.99
2022-09-01T18:29:11.070Z,28.10
2022-09-01T18:31:18.299Z,27.89
2022-09-01T18:33:33.074Z,28.03
2022-09-01T18:35:34.753Z,28.51
2022-09-01T18:38:03.784Z,28.15
2022-09-01T18:40:11.391Z,28.55
2022-09-01T18:42:40.475Z,27.97
2022-09-01T18:45:12.077Z,28.31
2022-09-01T18:47:17.117Z,28.76
2022-09-01T18:49:47.124Z,29.16
2022-09-01T18:52:01.251Z,28.87
2022-09-01T18:54:18.190Z,28.84
2022-09-01T18:56:37.401Z,28.47
2022-09-01T18:58:52.062Z,28.39
2022-09-01T19:01:04.002Z,28.05
2022-09-01T19:03:39.148Z,28.53
2022-09-01T19:05:59.768Z,28.09
2022-09-01T19:08:20.964Z,27.81
2022-09-01T19:10:52.674Z,28.37
2022-09-01T19:13:30.384Z,27.79
2022-09-01T19:15:38.083Z,27.40
2022-09-01T19:17:58.558Z,27.79
2022-09-01T19:20:03.176Z,27.35
2022-09-01T19:22:04.967Z,26.89
2022-09-01T19:24:20.441Z,27.85
2022-09-01T19:26:25.203Z,27.46
2022-09-01T19:28:43.843Z,27.95
2022-09-01T19:30:54.916Z,27.84
2022-09-01T19:32:59.518Z,27.48
2022-09-01T19:35:12.080Z,27.67
2022-09-01T19:37:13.880Z,27.59
2022-09-01T19:39:19.938Z,27.52
2022-09-01T19:41:33.016Z,27.90
2022-09-01T19:43:40.425Z,27.76
2022-09-01T19:46:31.469Z,27.78
2022-09-01T19:48:44.723Z,27.54
2022-09-01T19:50:52.211Z,27.97
2022-09-01T19:53:00.598Z,28.21
2022-09-01T19:55:10.164Z,27.11
2022-09-01T19:57:55.919Z,27.53
2022-09-01T20:00:00.427Z,27.22
2022-09-01T20:02:21.400Z,27.32
2022-09-01T20:04:41.228Z,26.99
2022-09-01T20:06:48.016Z,27.39
2022-09-01T20:09:15.198Z,27.93
2022-09-01T20:11:55.742Z,27.13
2022-09-01T20:14:02.171Z,27.17
2022-09-01T20:16:05.909Z,26.72
2022-09-01T20:18:16.639Z,26.33
2022-09-01T20:20:24.634Z,26.76
2022-09-01T20:22:38.173Z,26.96
2022-09-01T20:24:40.008Z,26.60
2022-09-01T20:27:03.831Z,26.78
2022-09-01T20:29:37.815Z,26.92
2022-09-01T20:31:45.501Z,26.62
2022-09-01T20:33:56.067Z,26.56
2022-09-01T20:36:07.094Z,26.55
2022-09-01T20:38:41.830Z,27.02
2022-09-01T20:40:46.086Z,26.75
2022-09-01T20:43:22.976Z,26.63
2022-09-01T20:45:27.224Z,26.99
2022-09-01T20:47:31.337Z,26.19
2022-09-01T20:49:37.227Z,26.62
2022-09-01T20:51:48.051Z,26.69
2022-09-01T20:54:07.090Z,26.39
2022-09-01T20:56:30.009Z,26.87
2022-09-01T20:58:58.515Z,26.86
2022-09-01T21:01:16.863Z,26.09
2022-09-01T21:03:39.990Z,26.24
2022-09-01T21:05:52.902Z,26.63
2022-09-01T21:08:25.968Z,26.44
2022-09-01T21:10:38.613Z,25.86
2022-09-01T21:13:39.438Z,25.65
2022-09-01T21:15:57.363Z,26.26
2022-09-01T21:18:49.876Z,26.21
2022-09-01T21:21:03.745Z,26.13
2022-09-01T21:23:06.855Z,26.79
2022-09-01T21:25:08.691Z,25.75
2022-09-01T21:27:20.347Z,26.48
2022-09-01T21:29:34.079Z,25.69
2022-09-01T21:31:35.687Z,25.04
2022-09-01T21:33:37.327Z,25.77
2022-09-01T21:35:38.944Z,25.79
2022-09-01T21:37:40.583Z,26.06
2022-09-01T21:39:42.156Z,25.75
2022-09-01T21:41:43.795Z,25.22
2022-09-01T21:43:46.495Z,25.52
2022-09-01T21:45:48.966Z,25.66
2022-09-01T21:47:52.095Z,25.78
2022-09-01T21:49:54.465Z,25.70
2022-09-01T21:51:56.067Z,25.58
2022-09-01T21:53:57.655Z,25.47
2022-09-01T21:55:59.889Z,25.29
2022-09-01T21:58:01.882Z,25.15
2022-09-01T22:00:13.088Z,25.30
2022-09-01T22:02:15.256Z,25.03
2022-09-01T22:04:18.307Z,25.66
2022-09-01T22:06:21.138Z,25.49
2022-09-01T22:08:22.996Z,25.20
2022-09-01T22:10:28.328Z,25.16
2022-09-01T22:12:30.202Z,25.60
2022-09-01T22:14:31.812Z,24.62
2022-09-01T22:16:33.707Z,25.01
2022-09-01T22:18:35.483Z,25.19
2022-09-01T22:20:37.865Z,25.05
2022-09-01T22:22:41.087Z,25.27
2022-09-01T22:24:42.657Z,25.14
2022-09-01T22:26:44.993Z,25.46
2022-09-01T22:28:47.259Z,25.60
2022-09-01T22:30:51.127Z,25.29
2022-09-01T22:32:54.068Z,24.52
2022-09-01T22:34:55.618Z,25.34
2022-09-01T22:36:57.285Z,25.13
2022-09-01T22:38:59.835Z,25.34
2022-09-01T22:41:02.312Z,24.88
2022-09-01T22:43:05.622Z,25.26
2022-09-01T22:45:08.550Z,25.33
2022-09-01T22:47:10.539Z,24.90
2022-09-01T22:49:12.359Z,25.02
2022-09-01T22:51:15.096Z,24.54
2022-09-01T22:53:19.378Z,24.90
2022-09-01T22:55:21.027Z,25.20
2022-09-01T22:57:23.019Z,25.52
2022-09-01T22:59:24.598Z,25.41
2022-09-01T23:01:31.550Z,25.34
2022-09-01T23:03:34.775Z,24.98
2022-09-01T23:05:36.419Z,24.73
2022-09-01T23:07:39.802Z,24.60
2022-09-01T23:09:41.556Z,24.88
2022-09-01T23:11:43.623Z,24.88
2022-09-01T23:13:45.467Z,24.56
2022-09-01T23:15:47.059Z,24.59
2022-09-01T23:17:48.614Z,24.37
2022-09-01T23:19:50.312Z,24.42
2022-09-01T23:21:52.675Z,24.68
2022-09-01T23:23:58.751Z,24.76
2022-09-01T23:26:02.374Z,24.56
2022-09-01T23:28:04.086Z,24.93
2022-09-01T23:30:08.232Z,24.52
2022-09-01T23:32:09.909Z,24.37
2022-09-01T23:34:13.339Z,24.31
2022-09-01T23:36:18.405Z,24.50
2022-09-01T23:38:24.703Z,24.42
2022-09-01T23:40:26.379Z,24.42
2022-09-01T23:42:28.114Z,24.30
2022-09-01T23:44:30.150Z,24.54
2022-09-01T23:46:36.996Z,24.38
2022-09-01T23:48:38.863Z,24.73
2022-09-01T23:50:50.883Z,24.92
2022-09-01T23:52:52.552Z,24.00
2022-09-01T23:54:54.640Z,25.20
2022-09-01T23:56:56.244Z,24.56
2022-09-01T23:58:59.426Z,24.80
